createdAt,value
2022-12-01T00:00:08.211Z,6.46
2022-12-01T00:04:11.332Z,6.49
2022-12-01T00:08:15.430Z,6.49
2022-12-01T00:12:18.133Z,6.52
2022-12-01T00:16:21.207Z,6.59
2022-12-01T00:20:24.219Z,6.59
2022-12-01T00:24:28.419Z,6.58
2022-12-01T00:28:31.122Z,6.65
2022-12-01T00:32:33.939Z,6.66
2022-12-01T00:36:36.625Z,6.60
2022-12-01T00:40:40.670Z,6.52
2022-12-01T00:44:44.596Z,6.42
2022-12-01T00:48:47.543Z,6.44
2022-12-01T00:52:50.290Z,6.38
2022-12-01T00:56:54.326Z,6.34
2022-12-01T01:01:02.615Z,6.37
2022-12-01T01:05:06.351Z,6.44
2022-12-01T01:09:09.059Z,6.48
2022-12-01T01:13:14.039Z,6.39
2022-12-01T01:17:16.780Z,6.34
2022-12-01T01:21:22.116Z,6.22
2022-12-01T01:25:24.825Z,6.15
2022-12-01T01:29:28.927Z,6.21
2022-12-01T01:33:31.613Z,6.21
2022-12-01T01:37:34.399Z,6.22
2022-12-01T01:41:37.126Z,6.21
2022-12-01T01:45:41.331Z,6.26
2022-12-01T01:49:44.201Z,6.31
2022-12-01T01:53:47.832Z,6.22
2022-12-01T01:57:51.020Z,6.17
2022-12-01T02:02:01.524Z,6.15
2022-12-01T02:06:05.342Z,6.19
2022-12-01T02:10:11.992Z,6.21
2022-12-01T02:14:40.666Z,6.28
2022-12-01T02:18:51.541Z,6.35
2022-12-01T02:23:15.634Z,6.34
2022-12-01T02:27:30.707Z,6.32
2022-12-01T02:31:40.960Z,6.29
2022-12-01T02:35:49.536Z,6.23
2022-12-01T02:39:59.046Z,6.19
2022-12-01T02:44:09.000Z,6.17
2022-12-01T02:48:20.232Z,6.25
2022-12-01T02:52:26.908Z,6.27
2022-12-01T02:56:30.117Z,6.27
2022-12-01T03:00:33.197Z,6.27
2022-12-01T03:04:51.855Z,6.25
2022-12-01T03:09:06.120Z,6.17
2022-12-01T03:13:19.717Z,5.99
2022-12-01T03:17:29.515Z,5.93
2022-12-01T03:21:37.076Z,5.87
2022-12-01T03:25:43.073Z,5.84
2022-12-01T03:29:49.615Z,5.80
2022-12-01T03:33:59.047Z,5.74
2022-12-01T03:38:07.807Z,5.78
2022-12-01T03:42:17.672Z,5.75
2022-12-01T03:46:26.533Z,5.73
2022-12-01T03:50:37.695Z,5.79
2022-12-01T03:54:53.062Z,5.84
2022-12-01T03:58:58.530Z,5.86
2022-12-01T04:03:04.239Z,5.86
2022-12-01T04:07:07.211Z,5.87
2022-12-01T04:11:29.465Z,5.89
2022-12-01T04:15:35.060Z,5.84
2022-12-01T04:19:37.767Z,5.90
2022-12-01T04:23:57.851Z,5.87
2022-12-01T04:28:01.909Z,5.87
2022-12-01T04:32:04.968Z,5.89
2022-12-01T04:36:08.328Z,5.87
2022-12-01T04:40:12.138Z,5.90
2022-12-01T04:44:16.475Z,5.93
2022-12-01T04:48:19.195Z,5.98
2022-12-01T04:52:21.922Z,5.99
2022-12-01T04:56:24.799Z,5.99
2022-12-01T05:00:28.962Z,5.98
2022-12-01T05:04:33.856Z,6.00
2022-12-01T05:08:36.636Z,6.04
2022-12-01T05:12:41.018Z,6.06
2022-12-01T05:16:45.173Z,6.10
2022-12-01T05:21:00.151Z,6.07
2022-12-01T05:25:02.847Z,6.07
2022-12-01T05:29:06.154Z,6.13
2022-12-01T05:33:10.249Z,6.17
2022-12-01T05:37:12.949Z,6.17
2022-12-01T05:41:15.708Z,6.19
2022-12-01T05:45:18.549Z,6.20
2022-12-01T05:49:22.614Z,6.22
2022-12-01T05:53:25.413Z,6.21
2022-12-01T05:57:28.344Z,6.13
2022-12-01T06:01:31.116Z,6.11
2022-12-01T06:05:35.214Z,6.07
2022-12-01T06:09:37.999Z,6.09
2022-12-01T06:13:40.804Z,6.09
2022-12-01T06:17:43.531Z,6.13
2022-12-01T06:21:47.597Z,6.11
2022-12-01T06:25:50.514Z,6.14
2022-12-01T06:29:53.472Z,6.08
2022-12-01T06:33:56.376Z,6.08
2022-12-01T06:38:00.471Z,6.08
2022-12-01T06:42:03.210Z,6.09
2022-12-01T06:46:06.636Z,6.02
2022-12-01T06:50:11.794Z,6.07
2022-12-01T06:54:17.776Z,6.09
2022-12-01T06:58:20.571Z,6.13
2022-12-01T07:02:23.871Z,6.14
2022-12-01T07:06:26.618Z,6.19
2022-12-01T07:10:30.729Z,6.16
2022-12-01T07:14:33.564Z,6.15
2022-12-01T07:18:37.043Z,6.18
2022-12-01T07:22:39.977Z,6.20
2022-12-01T07:26:44.637Z,6.21
2022-12-01T07:30:47.440Z,6.25
2022-12-01T07:34:50.223Z,6.23
2022-12-01T07:38:52.961Z,6.27
2022-12-01T07:42:57.053Z,6.32
2022-12-01T07:46:59.787Z,6.29
2022-12-01T07:51:02.966Z,6.26
2022-12-01T07:55:06.443Z,6.30
2022-12-01T07:59:11.874Z,6.29
2022-12-01T08:03:15.034Z,6.34
2022-12-01T08:07:18.970Z,6.34
2022-12-01T08:11:23.376Z,6.31
2022-12-01T08:15:27.512Z,6.31
2022-12-01T08:19:30.310Z,6.36
2022-12-01T08:23:33.392Z,6.40
2022-12-01T08:27:36.573Z,6.44
2022-12-01T08:31:40.707Z,6.45
2022-12-01T08:35:43.486Z,6.42
2022-12-01T08:39:46.158Z,6.44
2022-12-01T08:43:58.018Z,6.49
2022-12-01T08:48:02.767Z,6.51
2022-12-01T08:52:05.726Z,6.52
2022-12-01T08:56:12.062Z,6.50
2022-12-01T09:00:15.919Z,6.55
2022-12-01T09:04:20.911Z,6.57
2022-12-01T09:08:32.620Z,6.64
2022-12-01T09:12:35.411Z,6.62
2022-12-01T09:16:38.388Z,6.65
2022-12-01T09:20:42.685Z,6.64
2022-12-01T09:24:45.844Z,6.57
2022-12-01T09:28:53.367Z,6.59
2022-12-01T09:32:56.190Z,6.56
2022-12-01T09:37:00.677Z,6.55
2022-12-01T09:41:06.962Z,6.61
2022-12-01T09:45:23.638Z,6.65
2022-12-01T09:49:30.439Z,6.66
2022-12-01T09:53:34.509Z,6.69
2022-12-01T09:57:40.327Z,6.73
2022-12-01T10:01:45.804Z,6.70
2022-12-01T10:06:25.840Z,6.69
2022-12-01T10:10:26.157Z,6.60
2022-12-01T10:14:34.771Z,6.63
2022-12-01T10:18:52.692Z,6.67
2022-12-01T10:23:14.278Z,6.72
2022-12-01T10:27:40.788Z,6.75
2022-12-01T10:31:52.790Z,6.79
2022-12-01T10:35:55.748Z,6.73
2022-12-01T10:39:59.629Z,6.77
2022-12-01T10:44:05.692Z,6.76
2022-12-01T10:48:15.039Z,6.75
2022-12-01T10:52:42.561Z,6.77
2022-12-01T10:56:49.318Z,6.79
2022-12-01T11:01:00.713Z,6.74
2022-12-01T11:05:07.365Z,6.74
2022-12-01T11:09:25.971Z,6.78
2022-12-01T11:13:32.049Z,6.84
2022-12-01T11:17:39.954Z,6.84
2022-12-01T11:21:48.554Z,6.86
2022-12-01T11:25:59.649Z,6.89
2022-12-01T11:30:05.777Z,6.92
2022-12-01T11:34:19.665Z,6.97
2022-12-01T11:38:31.304Z,6.91
2022-12-01T11:42:36.902Z,6.91
2022-12-01T11:46:50.077Z,6.91
2022-12-01T11:51:07.067Z,6.89
2022-12-01T11:55:22.879Z,6.93
2022-12-01T11:59:28.271Z,6.95
2022-12-01T12:03:41.355Z,6.89
2022-12-01T12:07:56.814Z,6.86
2022-12-01T12:12:16.437Z,6.85
2022-12-01T12:16:31.919Z,6.84
2022-12-01T12:20:52.612Z,6.84
2022-12-01T12:25:08.399Z,6.92
2022-12-01T12:29:35.729Z,6.87
2022-12-01T12:34:11.901Z,6.79
2022-12-01T12:38:33.454Z,6.80
2022-12-01T12:42:48.340Z,6.81
2022-12-01T12:47:00.593Z,6.83
2022-12-01T12:51:13.471Z,6.83
2022-12-01T12:55:23.941Z,6.81
2022-12-01T12:59:35.682Z,6.77
2022-12-01T13:03:46.522Z,6.73
2022-12-01T13:07:54.769Z,6.70
2022-12-01T13:12:03.637Z,6.69
2022-12-01T13:16:14.639Z,6.69
2022-12-01T13:20:20.831Z,6.66
2022-12-01T13:24:26.524Z,6.65
2022-12-01T13:28:39.146Z,6.67
2022-12-01T13:32:43.927Z,6.71
2022-12-01T13:36:51.205Z,6.79
2022-12-01T13:41:22.379Z,6.85
2022-12-01T13:45:25.481Z,6.91
2022-12-01T13:49:39.685Z,6.89
2022-12-01T13:53:58.694Z,6.92
2022-12-01T13:58:41.099Z,6.96
2022-12-01T14:02:44.366Z,6.97
2022-12-01T14:06:50.264Z,6.96
2022-12-01T14:10:55.838Z,6.97
2022-12-01T14:15:01.688Z,6.95
2022-12-01T14:19:04.924Z,6.87
2022-12-01T14:23:21.303Z,6.89
2022-12-01T14:27:35.849Z,6.84
2022-12-01T14:32:24.812Z,6.81
2022-12-01T14:36:39.386Z,6.86
2022-12-01T14:40:45.296Z,6.83
2022-12-01T14:44:51.405Z,6.80
2022-12-01T14:48:56.463Z,6.82
2022-12-01T14:53:07.643Z,6.83
2022-12-01T14:57:16.967Z,6.82
2022-12-01T15:01:23.379Z,6.78
2022-12-01T15:05:29.477Z,6.79
2022-12-01T15:09:34.148Z,6.77
2022-12-01T15:13:49.432Z,6.78
2022-12-01T15:17:55.450Z,6.77
2022-12-01T15:21:58.692Z,6.76
2022-12-01T15:26:01.846Z,6.71
2022-12-01T15:30:07.911Z,6.74
2022-12-01T15:34:16.330Z,6.72
2022-12-01T15:38:22.962Z,6.72
2022-12-01T15:42:29.421Z,6.73
2022-12-01T15:46:35.573Z,6.72
2022-12-01T15:50:46.168Z,6.72
2022-12-01T15:54:51.374Z,6.68
2022-12-01T15:59:00.200Z,6.63
2022-12-01T16:03:04.939Z,6.53
2022-12-01T16:07:10.709Z,6.57
2022-12-01T16:11:15.900Z,6.56
2022-12-01T16:15:22.714Z,6.57
2022-12-01T16:19:31.719Z,6.56
2022-12-01T16:23:34.676Z,6.56
2022-12-01T16:27:38.038Z,6.55
2022-12-01T16:31:58.502Z,6.55
2022-12-01T16:36:06.103Z,6.55
2022-12-01T16:40:11.403Z,6.53
2022-12-01T16:44:28.443Z,6.51
2022-12-01T16:48:32.314Z,6.47
2022-12-01T16:52:45.651Z,6.47
2022-12-01T16:56:49.446Z,6.44
2022-12-01T17:00:53.725Z,6.41
2022-12-01T17:04:57.056Z,6.39
2022-12-01T17:09:01.972Z,6.37
2022-12-01T17:13:05.172Z,6.35
2022-12-01T17:17:08.339Z,6.31
2022-12-01T17:21:12.418Z,6.27
2022-12-01T17:25:16.967Z,6.26
2022-12-01T17:29:20.083Z,6.26
2022-12-01T17:33:23.954Z,6.27
2022-12-01T17:37:28.010Z,6.24
2022-12-01T17:41:35.660Z,6.25
2022-12-01T17:45:41.854Z,6.24
2022-12-01T17:49:44.810Z,6.19
2022-12-01T17:53:47.906Z,6.15
2022-12-01T17:57:52.770Z,6.12
2022-12-01T18:01:55.867Z,6.13
2022-12-01T18:06:00.218Z,6.06
2022-12-01T18:10:03.318Z,6.07
2022-12-01T18:14:07.656Z,6.07
2022-12-01T18:18:12.093Z,6.09
2022-12-01T18:22:14.966Z,6.05
2022-12-01T18:26:19.463Z,6.03
2022-12-01T18:30:23.535Z,5.93
2022-12-01T18:34:29.441Z,5.88
2022-12-01T18:38:32.351Z,5.86
2022-12-01T18:42:35.089Z,5.81
2022-12-01T18:46:39.304Z,5.70
2022-12-01T18:50:42.067Z,5.66
2022-12-01T18:54:44.836Z,5.61
2022-12-01T18:58:47.536Z,5.54
2022-12-01T19:02:51.603Z,5.46
2022-12-01T19:06:55.116Z,5.41
2022-12-01T19:11:02.150Z,5.35
2022-12-01T19:15:05.726Z,5.30
2022-12-01T19:19:10.623Z,5.33
2022-12-01T19:23:13.381Z,5.34
2022-12-01T19:27:16.151Z,5.37
2022-12-01T19:31:22.583Z,5.26
2022-12-01T19:35:27.492Z,5.25
2022-12-01T19:39:30.241Z,5.16
2022-12-01T19:43:34.988Z,5.15
2022-12-01T19:47:38.461Z,5.15
2022-12-01T19:51:42.530Z,5.17
2022-12-01T19:55:45.234Z,5.15
2022-12-01T19:59:47.940Z,5.16
2022-12-01T20:03:52.429Z,5.08
2022-12-01T20:07:56.703Z,5.04
2022-12-01T20:11:59.470Z,5.05
2022-12-01T20:16:04.053Z,5.02
2022-12-01T20:20:08.238Z,5.01
2022-12-01T20:24:14.995Z,5.03
2022-12-01T20:28:17.893Z,5.07
2022-12-01T20:32:23.480Z,5.06
2022-12-01T20:36:27.188Z,5.03
2022-12-01T20:40:31.386Z,5.00
2022-12-01T20:44:34.493Z,4.96
2022-12-01T20:48:37.382Z,4.95
2022-12-01T20:52:40.765Z,4.92
2022-12-01T20:56:44.909Z,4.92
2022-12-01T21:00:49.884Z,4.96
2022-12-01T21:04:56.387Z,4.97
2022-12-01T21:09:02.404Z,5.00
2022-12-01T21:13:36.081Z,4.99
2022-12-01T21:17:43.132Z,4.93
2022-12-01T21:21:46.022Z,4.90
2022-12-01T21:25:51.177Z,4.88
2022-12-01T21:29:56.665Z,4.84
2022-12-01T21:33:59.411Z,4.86
2022-12-01T21:38:05.218Z,4.86
2022-12-01T21:42:28.127Z,4.84
2022-12-01T21:46:32.483Z,4.81
2022-12-01T21:50:35.201Z,4.70
2022-12-01T21:54:38.012Z,4.70
2022-12-01T21:58:40.894Z,4.76
2022-12-01T22:02:50.610Z,4.82
2022-12-01T22:06:54.930Z,4.80
2022-12-01T22:11:01.119Z,4.80
2022-12-01T22:15:28.930Z,4.81
2022-12-01T22:19:34.728Z,4.75
2022-12-01T22:23:37.452Z,4.70
2022-12-01T22:27:40.674Z,4.68
2022-12-01T22:31:43.420Z,4.65
2022-12-01T22:35:49.135Z,4.68
2022-12-01T22:39:55.820Z,4.66
2022-12-01T22:44:00.554Z,4.66
2022-12-01T22:48:03.423Z,4.69
2022-12-01T22:52:17.048Z,4.67
2022-12-01T22:56:28.548Z,4.69
2022-12-01T23:00:31.443Z,4.62
2022-12-01T23:04:39.294Z,4.64
2022-12-01T23:08:43.367Z,4.63
2022-12-01T23:12:47.652Z,4.59
2022-12-01T23:16:53.340Z,4.55
2022-12-01T23:20:57.978Z,4.51
2022-12-01T23:25:10.460Z,4.50
2022-12-01T23:29:13.690Z,4.42
2022-12-01T23:33:20.524Z,4.36
2022-12-01T23:37:35.074Z,4.32
2022-12-01T23:41:41.868Z,4.36
2022-12-01T23:45:45.326Z,4.30
2022-12-01T23:49:53.059Z,4.38
2022-12-01T23:53:57.515Z,4.44
2022-12-01T23:58:03.695Z,4.50
